sensor_id;sensor_type;location;lat;lon;timestamp;pressure;altitude;pressure_sealevel;temperature;humidity
20156;BME280;10238;49.556;10.956;2023-05-11T00:01:31;98023.78;;;13.03;100.00
20156;BME280;10238;49.556;10.956;2023-05-11T00:04:20;98015.94;;;13.01;100.00
20156;BME280;10238;49.556;10.956;2023-05-11T00:07:09;98017.81;;;13.01;100.00
20156;BME280;10238;49.556;10.956;2023-05-11T00:09:56;98021.47;;;13.00;100.00
20156;BME280;10238;49.556;10.956;2023-05-11T00:12:45;98013.44;;;13.00;100.00
20156;BME280;10238;49.556;10.956;2023-05-11T00:15:32;98020.78;;;12.98;100.00
20156;BME280;10238;49.556;10.956;2023-05-11T00:18:21;98022.78;;;12.96;100.00
20156;BME280;10238;49.556;10.956;2023-05-11T00:21:09;98015.16;;;12.93;100.00
20156;BME280;10238;49.556;10.956;2023-05-11T00:23:58;98022.53;;;12.91;100.00
20156;BME280;10238;49.556;10.956;2023-05-11T00:26:46;98020.38;;;12.86;100.00
20156;BME280;10238;49.556;10.956;2023-05-11T00:29:34;98018.88;;;12.84;100.00
20156;BME280;10238;49.556;10.956;2023-05-11T00:32:22;98015.56;;;12.82;100.00
20156;BME280;10238;49.556;10.956;2023-05-11T00:35:10;98019.56;;;12.78;100.00
20156;BME280;10238;49.556;10.956;2023-05-11T00:37:58;98012.59;;;12.77;100.00
20156;BME280;10238;49.556;10.956;2023-05-11T00:40:48;98014.25;;;12.78;100.00
20156;BME280;10238;49.556;10.956;2023-05-11T00:43:36;98003.56;;;12.78;100.00
20156;BME280;10238;49.556;10.956;2023-05-11T00:46:24;98003.56;;;12.78;100.00
20156;BME280;10238;49.556;10.956;2023-05-11T00:49:13;98008.91;;;12.78;100.00
20156;BME280;10238;49.556;10.956;2023-05-11T00:52:03;98007.25;;;12.77;100.00
20156;BME280;10238;49.556;10.956;2023-05-11T00:54:50;98003.91;;;12.75;100.00
20156;BME280;10238;49.556;10.956;2023-05-11T00:57:39;98002.28;;;12.74;100.00
20156;BME280;10238;49.556;10.956;2023-05-11T01:00:28;98002.28;;;12.74;100.00
20156;BME280;10238;49.556;10.956;2023-05-11T01:03:16;98005.13;;;12.72;100.00
20156;BME280;10238;49.556;10.956;2023-05-11T01:06:09;98007.16;;;12.70;100.00
20156;BME280;10238;49.556;10.956;2023-05-11T01:09:02;98010.97;;;12.68;100.00
20156;BME280;10238;49.556;10.956;2023-05-11T01:11:59;98009.16;;;12.68;100.00
20156;BME280;10238;49.556;10.956;2023-05-11T01:14:59;98009.31;;;12.67;100.00
20156;BME280;10238;49.556;10.956;2023-05-11T01:17:52;98008.66;;;12.65;100.00
20156;BME280;10238;49.556;10.956;2023-05-11T01:20:45;98006.84;;;12.65;100.00
20156;BME280;10238;49.556;10.956;2023-05-11T01:27:30;98004.53;;;12.62;100.00
20156;BME280;10238;49.556;10.956;2023-05-11T01:30:27;98003.69;;;12.62;100.00
20156;BME280;10238;49.556;10.956;2023-05-11T01:33:19;98005.72;;;12.60;100.00
20156;BME280;10238;49.556;10.956;2023-05-11T01:36:09;98009.34;;;12.59;100.00
20156;BME280;10238;49.556;10.956;2023-05-11T01:39:02;98004.19;;;12.57;100.00
20156;BME280;10238;49.556;10.956;2023-05-11T01:41:51;98006.88;;;12.57;100.00
20156;BME280;10238;49.556;10.956;2023-05-11T01:44:42;98002.56;;;12.56;100.00
20156;BME280;10238;49.556;10.956;2023-05-11T01:47:36;98010.09;;;12.53;100.00
20156;BME280;10238;49.556;10.956;2023-05-11T01:50:25;98011.06;;;12.52;100.00
20156;BME280;10238;49.556;10.956;2023-05-11T01:53:13;98006.75;;;12.51;100.00
20156;BME280;10238;49.556;10.956;2023-05-11T01:56:02;98007.09;;;12.48;100.00
20156;BME280;10238;49.556;10.956;2023-05-11T01:58:51;98014.09;;;12.49;100.00
20156;BME280;10238;49.556;10.956;2023-05-11T02:01:40;98014.25;;;12.47;100.00
20156;BME280;10238;49.556;10.956;2023-05-11T02:04:31;98009.09;;;12.46;100.00
20156;BME280;10238;49.556;10.956;2023-05-11T02:07:22;98009.09;;;12.46;100.00
20156;BME280;10238;49.556;10.956;2023-05-11T02:10:11;98012.47;;;12.40;100.00
20156;BME280;10238;49.556;10.956;2023-05-11T02:13:02;98011.47;;;12.41;100.00
20156;BME280;10238;49.556;10.956;2023-05-11T02:15:52;98010.00;;;12.38;100.00
20156;BME280;10238;49.556;10.956;2023-05-11T02:18:42;98009.16;;;12.38;100.00
20156;BME280;10238;49.556;10.956;2023-05-11T02:21:33;98012.84;;;12.37;100.00
20156;BME280;10238;49.556;10.956;2023-05-11T02:24:23;98012.66;;;12.38;100.00
20156;BME280;10238;49.556;10.956;2023-05-11T02:27:11;98004.19;;;12.35;100.00
20156;BME280;10238;49.556;10.956;2023-05-11T02:29:59;97996.19;;;12.35;100.00
20156;BME280;10238;49.556;10.956;2023-05-11T02:32:50;98009.50;;;12.35;100.00
20156;BME280;10238;49.556;10.956;2023-05-11T02:35:42;98007.00;;;12.33;100.00
20156;BME280;10238;49.556;10.956;2023-05-11T02:38:33;98002.88;;;12.31;100.00
20156;BME280;10238;49.556;10.956;2023-05-11T02:41:25;97999.53;;;12.29;100.00
20156;BME280;10238;49.556;10.956;2023-05-11T02:44:15;97999.72;;;12.27;100.00
20156;BME280;10238;49.556;10.956;2023-05-11T02:47:06;98001.72;;;12.25;100.00
20156;BME280;10238;49.556;10.956;2023-05-11T02:50:00;97997.56;;;12.23;100.00
20156;BME280;10238;49.556;10.956;2023-05-11T02:52:52;97999.59;;;12.21;100.00
20156;BME280;10238;49.556;10.956;2023-05-11T02:55:42;98000.56;;;12.20;100.00
20156;BME280;10238;49.556;10.956;2023-05-11T02:58:31;98000.75;;;12.18;100.00
20156;BME280;10238;49.556;10.956;2023-05-11T03:01:20;98000.91;;;12.17;100.00
20156;BME280;10238;49.556;10.956;2023-05-11T03:04:08;97995.94;;;12.14;100.00
20156;BME280;10238;49.556;10.956;2023-05-11T03:06:56;97993.63;;;12.11;100.00
20156;BME280;10238;49.556;10.956;2023-05-11T03:09:44;97993.63;;;12.11;100.00
20156;BME280;10238;49.556;10.956;2023-05-11T03:12:33;97995.63;;;12.09;100.00
20156;BME280;10238;49.556;10.956;2023-05-11T03:15:22;97987.81;;;12.07;100.00
20156;BME280;10238;49.556;10.956;2023-05-11T03:18:11;97994.31;;;12.05;100.00
20156;BME280;10238;49.556;10.956;2023-05-11T03:21:00;97992.66;;;12.04;100.00
20156;BME280;10238;49.556;10.956;2023-05-11T03:23:49;97996.31;;;12.03;100.00
20156;BME280;10238;49.556;10.956;2023-05-11T03:26:37;98003.66;;;12.01;100.00
20156;BME280;10238;49.556;10.956;2023-05-11T03:29:28;97999.00;;;11.95;100.00
20156;BME280;10238;49.556;10.956;2023-05-11T03:32:18;97991.84;;;11.95;100.00
20156;BME280;10238;49.556;10.956;2023-05-11T03:35:07;97989.19;;;11.95;100.00
20156;BME280;10238;49.556;10.956;2023-05-11T03:37:56;97995.34;;;11.96;100.00
20156;BME280;10238;49.556;10.956;2023-05-11T03:40:45;97999.00;;;11.95;100.00
20156;BME280;10238;49.556;10.956;2023-05-11T03:43:35;97986.69;;;11.94;100.00
20156;BME280;10238;49.556;10.956;2023-05-11T03:46:26;97987.72;;;11.93;100.00
20156;BME280;10238;49.556;10.956;2023-05-11T03:49:16;97983.38;;;11.92;100.00
20156;BME280;10238;49.556;10.956;2023-05-11T03:52:05;97991.34;;;11.92;100.00
20156;BME280;10238;49.556;10.956;2023-05-11T03:54:54;97988.88;;;11.90;100.00
20156;BME280;10238;49.556;10.956;2023-05-11T03:57:42;97987.56;;;11.86;100.00
20156;BME280;10238;49.556;10.956;2023-05-11T04:00:30;97987.56;;;11.86;100.00
20156;BME280;10238;49.556;10.956;2023-05-11T04:03:19;97982.41;;;11.85;100.00
20156;BME280;10238;49.556;10.956;2023-05-11T04:06:08;97980.75;;;11.84;100.00
20156;BME280;10238;49.556;10.956;2023-05-11T04:08:56;97982.75;;;11.82;100.00
20156;BME280;10238;49.556;10.956;2023-05-11T04:11:44;97982.56;;;11.83;100.00
20156;BME280;10238;49.556;10.956;2023-05-11T04:14:32;97976.59;;;11.81;100.00
20156;BME280;10238;49.556;10.956;2023-05-11T04:17:20;97986.41;;;11.81;100.00
20156;BME280;10238;49.556;10.956;2023-05-11T04:20:10;97975.09;;;11.79;100.00
20156;BME280;10238;49.556;10.956;2023-05-11T04:22:58;97979.44;;;11.80;100.00
20156;BME280;10238;49.556;10.956;2023-05-11T04:25:51;97982.28;;;11.78;100.00
20156;BME280;10238;49.556;10.956;2023-05-11T04:28:39;97980.59;;;11.77;100.00
20156;BME280;10238;49.556;10.956;2023-05-11T04:31:27;97986.75;;;11.78;100.00
20156;BME280;10238;49.556;10.956;2023-05-11T04:34:16;97980.59;;;11.77;100.00
20156;BME280;10238;49.556;10.956;2023-05-11T04:37:05;97985.75;;;11.79;100.00
20156;BME280;10238;49.556;10.956;2023-05-11T04:39:53;97988.22;;;11.80;100.00
20156;BME280;10238;49.556;10.956;2023-05-11T04:42:41;97993.72;;;11.79;100.00
20156;BME280;10238;49.556;10.956;2023-05-11T04:45:29;97991.41;;;11.76;100.00
20156;BME280;10238;49.556;10.956;2023-05-11T04:48:17;97992.91;;;11.78;100.00
20156;BME280;10238;49.556;10.956;2023-05-11T04:51:06;97987.44;;;11.80;100.00
20156;BME280;10238;49.556;10.956;2023-05-11T04:53:56;97992.75;;;11.80;100.00
20156;BME280;10238;49.556;10.956;2023-05-11T04:56:44;97997.41;;;11.78;100.00
20156;BME280;10238;49.556;10.956;2023-05-11T04:59:32;97996.22;;;11.80;100.00
20156;BME280;10238;49.556;10.956;2023-05-11T05:02:20;97996.06;;;11.82;100.00
20156;BME280;10238;49.556;10.956;2023-05-11T05:05:08;97996.72;;;11.84;100.00
20156;BME280;10238;49.556;10.956;2023-05-11T05:07:56;97995.72;;;11.85;100.00
20156;BME280;10238;49.556;10.956;2023-05-11T05:10:46;97999.03;;;11.87;100.00
20156;BME280;10238;49.556;10.956;2023-05-11T05:13:34;97996.22;;;11.88;100.00
20156;BME280;10238;49.556;10.956;2023-05-11T05:16:22;97996.84;;;11.90;100.00
20156;BME280;10238;49.556;10.956;2023-05-11T05:19:10;97998.19;;;11.94;100.00
20156;BME280;10238;49.556;10.956;2023-05-11T05:21:58;98001.66;;;11.95;100.00
20156;BME280;10238;49.556;10.956;2023-05-11T05:24:46;98003.34;;;11.96;100.00
20156;BME280;10238;49.556;10.956;2023-05-11T05:27:36;98004.34;;;11.95;100.00
20156;BME280;10238;49.556;10.956;2023-05-11T05:30:24;98007.50;;;11.98;100.00
20156;BME280;10238;49.556;10.956;2023-05-11T05:33:12;98016.97;;;12.01;100.00
20156;BME280;10238;49.556;10.956;2023-05-11T05:36:00;98013.50;;;12.00;100.00
20156;BME280;10238;49.556;10.956;2023-05-11T05:38:48;98016.97;;;12.01;100.00
20156;BME280;10238;49.556;10.956;2023-05-11T05:41:36;98021.31;;;12.02;100.00
20156;BME280;10238;49.556;10.956;2023-05-11T05:44:25;98016.00;;;12.02;100.00
20156;BME280;10238;49.556;10.956;2023-05-11T05:47:13;98018.47;;;12.03;100.00
20156;BME280;10238;49.556;10.956;2023-05-11T05:50:01;98021.78;;;12.05;100.00
20156;BME280;10238;49.556;10.956;2023-05-11T05:52:49;98022.63;;;12.06;100.00
20156;BME280;10238;49.556;10.956;2023-05-11T05:55:37;98018.09;;;12.06;100.00
20156;BME280;10238;49.556;10.956;2023-05-11T05:58:25;98027.94;;;12.06;100.00
20156;BME280;10238;49.556;10.956;2023-05-11T06:01:15;98027.94;;;12.06;100.00
20156;BME280;10238;49.556;10.956;2023-05-11T06:04:03;98025.13;;;12.07;100.00
20156;BME280;10238;49.556;10.956;2023-05-11T06:06:51;98034.59;;;12.10;100.00
20156;BME280;10238;49.556;10.956;2023-05-11T06:09:39;98029.09;;;12.11;100.00
20156;BME280;10238;49.556;10.956;2023-05-11T06:12:27;98028.75;;;12.14;100.00
20156;BME280;10238;49.556;10.956;2023-05-11T06:15:15;98032.91;;;12.17;100.00
20156;BME280;10238;49.556;10.956;2023-05-11T06:18:04;98032.38;;;12.21;100.00
20156;BME280;10238;49.556;10.956;2023-05-11T06:20:52;98032.03;;;12.24;100.00
20156;BME280;10238;49.556;10.956;2023-05-11T06:23:40;98035.84;;;12.30;100.00
20156;BME280;10238;49.556;10.956;2023-05-11T06:26:28;98025.84;;;12.32;100.00
20156;BME280;10238;49.556;10.956;2023-05-11T06:29:16;98021.66;;;12.37;100.00
20156;BME280;10238;49.556;10.956;2023-05-11T06:32:11;98030.13;;;12.41;100.00
20156;BME280;10238;49.556;10.956;2023-05-11T06:35:00;98032.47;;;12.44;100.00
20156;BME280;10238;49.556;10.956;2023-05-11T06:37:48;98033.75;;;12.48;100.00
20156;BME280;10238;49.556;10.956;2023-05-11T06:40:36;98030.75;;;12.51;100.00
20156;BME280;10238;49.556;10.956;2023-05-11T06:43:24;98022.41;;;12.54;100.00
20156;BME280;10238;49.556;10.956;2023-05-11T06:46:12;98026.38;;;12.58;100.00
20156;BME280;10238;49.556;10.956;2023-05-11T06:49:03;98028.69;;;12.61;100.00
20156;BME280;10238;49.556;10.956;2023-05-11T06:51:52;98031.31;;;12.69;100.00
20156;BME280;10238;49.556;10.956;2023-05-11T06:54:42;98023.59;;;12.74;100.00
20156;BME280;10238;49.556;10.956;2023-05-11T06:57:30;98026.25;;;12.82;100.00
20156;BME280;10238;49.556;10.956;2023-05-11T07:00:19;98031.84;;;12.87;100.00
20156;BME280;10238;49.556;10.956;2023-05-11T07:03:07;98032.16;;;12.92;100.00
20156;BME280;10238;49.556;10.956;2023-05-11T07:05:55;98031.66;;;12.96;100.00
20156;BME280;10238;49.556;10.956;2023-05-11T07:08:44;98027.47;;;13.02;100.00
20156;BME280;10238;49.556;10.956;2023-05-11T07:11:32;98033.28;;;13.06;100.00
20156;BME280;10238;49.556;10.956;2023-05-11T07:14:20;98036.13;;;13.04;100.00
20156;BME280;10238;49.556;10.956;2023-05-11T07:17:08;98035.78;;;13.07;100.00
20156;BME280;10238;49.556;10.956;2023-05-11T07:19:56;98042.41;;;13.11;100.00
20156;BME280;10238;49.556;10.956;2023-05-11T07:22:44;98038.53;;;13.14;100.00
20156;BME280;10238;49.556;10.956;2023-05-11T07:25:36;98031.03;;;13.17;100.00
20156;BME280;10238;49.556;10.956;2023-05-11T07:28:24;98041.97;;;13.22;100.00
20156;BME280;10238;49.556;10.956;2023-05-11T07:31:12;98039.44;;;13.29;100.00
20156;BME280;10238;49.556;10.956;2023-05-11T07:34:00;98036.22;;;13.33;100.00
20156;BME280;10238;49.556;10.956;2023-05-11T07:36:48;98038.38;;;13.38;100.00
20156;BME280;10238;49.556;10.956;2023-05-11T07:39:36;98035.97;;;13.43;100.00
20156;BME280;10238;49.556;10.956;2023-05-11T07:42:25;98041.13;;;13.44;100.00
20156;BME280;10238;49.556;10.956;2023-05-11T07:45:13;98045.94;;;13.49;100.00
20156;BME280;10238;49.556;10.956;2023-05-11T07:48:01;98037.75;;;13.50;100.00
20156;BME280;10238;49.556;10.956;2023-05-11T07:50:49;98033.88;;;13.53;100.00
20156;BME280;10238;49.556;10.956;2023-05-11T07:53:37;98037.03;;;13.56;100.00
20156;BME280;10238;49.556;10.956;2023-05-11T07:56:25;98037.69;;;13.58;100.00
20156;BME280;10238;49.556;10.956;2023-05-11T07:59:14;98034.00;;;13.59;100.00
20156;BME280;10238;49.556;10.956;2023-05-11T08:02:02;98041.63;;;13.62;100.00
20156;BME280;10238;49.556;10.956;2023-05-11T08:04:50;98032.44;;;13.65;100.00
20156;BME280;10238;49.556;10.956;2023-05-11T08:07:38;98037.41;;;13.68;100.00
20156;BME280;10238;49.556;10.956;2023-05-11T08:10:27;98035.56;;;13.68;100.00
20156;BME280;10238;49.556;10.956;2023-05-11T08:13:15;98038.06;;;13.70;100.00
20156;BME280;10238;49.556;10.956;2023-05-11T08:16:05;98036.88;;;13.72;100.00
20156;BME280;10238;49.556;10.956;2023-05-11T08:18:53;98044.34;;;13.77;100.00
20156;BME280;10238;49.556;10.956;2023-05-11T08:21:41;98039.84;;;13.77;100.00
20156;BME280;10238;49.556;10.956;2023-05-11T08:24:31;98045.81;;;13.79;100.00
20156;BME280;10238;49.556;10.956;2023-05-11T08:27:19;98045.44;;;13.82;100.00
20156;BME280;10238;49.556;10.956;2023-05-11T08:30:08;98041.13;;;13.81;100.00
20156;BME280;10238;49.556;10.956;2023-05-11T08:33:01;98040.75;;;13.84;100.00
20156;BME280;10238;49.556;10.956;2023-05-11T08:36:09;98042.41;;;13.85;100.00
20156;BME280;10238;49.556;10.956;2023-05-11T08:38:58;98049.41;;;13.86;100.00
20156;BME280;10238;49.556;10.956;2023-05-11T08:41:48;98050.25;;;13.87;100.00
20156;BME280;10238;49.556;10.956;2023-05-11T08:44:37;98042.03;;;13.88;100.00
20156;BME280;10238;49.556;10.956;2023-05-11T08:47:27;98040.41;;;13.87;100.00
20156;BME280;10238;49.556;10.956;2023-05-11T08:50:17;98041.19;;;13.88;100.00
20156;BME280;10238;49.556;10.956;2023-05-11T08:53:05;98040.41;;;13.87;100.00
20156;BME280;10238;49.556;10.956;2023-05-11T08:55:55;98037.72;;;13.87;100.00
20156;BME280;10238;49.556;10.956;2023-05-11T08:58:46;98039.91;;;13.84;100.00
20156;BME280;10238;49.556;10.956;2023-05-11T09:01:35;98034.03;;;13.88;100.00
20156;BME280;10238;49.556;10.956;2023-05-11T09:04:24;98038.63;;;13.94;100.00
20156;BME280;10238;49.556;10.956;2023-05-11T09:07:15;98037.25;;;13.98;100.00
20156;BME280;10238;49.556;10.956;2023-05-11T09:10:04;98031.53;;;14.01;100.00
20156;BME280;10238;49.556;10.956;2023-05-11T09:12:52;98034.50;;;14.06;100.00
20156;BME280;10238;49.556;10.956;2023-05-11T09:15:40;98034.59;;;14.13;100.00
20156;BME280;10238;49.556;10.956;2023-05-11T09:18:27;98034.03;;;14.17;100.00
20156;BME280;10238;49.556;10.956;2023-05-11T09:21:16;98034.69;;;14.19;100.00
20156;BME280;10238;49.556;10.956;2023-05-11T09:24:06;98033.31;;;14.23;100.00
20156;BME280;10238;49.556;10.956;2023-05-11T09:27:09;98036.47;;;14.27;100.00
20156;BME280;10238;49.556;10.956;2023-05-11T09:30:01;98042.25;;;14.30;100.00
20156;BME280;10238;49.556;10.956;2023-05-11T09:32:57;98040.25;;;14.32;100.00
20156;BME280;10238;49.556;10.956;2023-05-11T09:35:45;98033.88;;;14.33;100.00
20156;BME280;10238;49.556;10.956;2023-05-11T09:38:33;98031.00;;;14.35;100.00
20156;BME280;10238;49.556;10.956;2023-05-11T09:41:23;98026.50;;;14.35;100.00
20156;BME280;10238;49.556;10.956;2023-05-11T09:44:13;98030.81;;;14.36;100.00
20156;BME280;10238;49.556;10.956;2023-05-11T09:47:10;98023.47;;;14.38;100.00
20156;BME280;10238;49.556;10.956;2023-05-11T09:49:59;98029.44;;;14.40;100.00
20156;BME280;10238;49.556;10.956;2023-05-11T09:53:02;98019.38;;;14.42;100.00
20156;BME280;10238;49.556;10.956;2023-05-11T09:55:51;98028.69;;;14.46;100.00
20156;BME280;10238;49.556;10.956;2023-05-11T09:58:49;98027.94;;;14.52;100.00
20156;BME280;10238;49.556;10.956;2023-05-11T10:01:38;98028.22;;;14.57;100.00
20156;BME280;10238;49.556;10.956;2023-05-11T10:04:28;98023.13;;;14.62;100.00
20156;BME280;10238;49.556;10.956;2023-05-11T10:07:24;98018.88;;;14.68;100.00
20156;BME280;10238;49.556;10.956;2023-05-11T10:10:13;98019.31;;;14.71;100.00
20156;BME280;10238;49.556;10.956;2023-05-11T10:13:02;98018.94;;;14.74;100.00
20156;BME280;10238;49.556;10.956;2023-05-11T10:15:52;98017.91;;;14.75;100.00
20156;BME280;10238;49.556;10.956;2023-05-11T10:18:41;98014.44;;;14.75;100.00
20156;BME280;10238;49.556;10.956;2023-05-11T10:21:30;98014.44;;;14.75;100.00
20156;BME280;10238;49.556;10.956;2023-05-11T10:24:19;98023.25;;;14.75;100.00
20156;BME280;10238;49.556;10.956;2023-05-11T10:27:07;98009.88;;;14.75;100.00
20156;BME280;10238;49.556;10.956;2023-05-11T10:29:55;98010.72;;;14.76;100.00
20156;BME280;10238;49.556;10.956;2023-05-11T10:32:46;98008.91;;;14.76;100.00
20156;BME280;10238;49.556;10.956;2023-05-11T10:35:37;98009.50;;;14.78;100.00
20156;BME280;10238;49.556;10.956;2023-05-11T10:38:25;98002.13;;;14.80;100.00
20156;BME280;10238;49.556;10.956;2023-05-11T10:41:24;98001.75;;;14.83;100.00
20156;BME280;10238;49.556;10.956;2023-05-11T10:44:38;97995.75;;;14.81;100.00
20156;BME280;10238;49.556;10.956;2023-05-11T10:47:48;98008.13;;;14.82;100.00
20156;BME280;10238;49.556;10.956;2023-05-11T10:50:51;97998.06;;;14.84;100.00
20156;BME280;10238;49.556;10.956;2023-05-11T10:53:56;97991.69;;;14.85;100.00
20156;BME280;10238;49.556;10.956;2023-05-11T10:57:11;97986.97;;;14.87;100.00
20156;BME280;10238;49.556;10.956;2023-05-11T11:03:31;97993.97;;;14.88;100.00
20156;BME280;10238;49.556;10.956;2023-05-11T11:06:22;97989.72;;;14.94;100.00
20156;BME280;10238;49.556;10.956;2023-05-11T11:09:11;97987.47;;;14.97;100.00
20156;BME280;10238;49.556;10.956;2023-05-11T11:12:08;97994.50;;;14.98;100.00
20156;BME280;10238;49.556;10.956;2023-05-11T11:14:58;97987.09;;;15.00;100.00
20156;BME280;10238;49.556;10.956;2023-05-11T11:17:46;97987.94;;;15.01;100.00
20156;BME280;10238;49.556;10.956;2023-05-11T11:20:47;97989.16;;;14.98;100.00
20156;BME280;10238;49.556;10.956;2023-05-11T11:23:56;97990.81;;;14.99;100.00
20156;BME280;10238;49.556;10.956;2023-05-11T11:26:47;97987.09;;;15.00;100.00
20156;BME280;10238;49.556;10.956;2023-05-11T11:29:36;97980.09;;;14.99;100.00
20156;BME280;10238;49.556;10.956;2023-05-11T11:32:26;97981.13;;;14.98;100.00
20156;BME280;10238;49.556;10.956;2023-05-11T11:35:46;97985.56;;;14.91;100.00
20156;BME280;10238;49.556;10.956;2023-05-11T11:38:58;97985.75;;;14.90;100.00
20156;BME280;10238;49.556;10.956;2023-05-11T11:41:59;97994.38;;;14.85;100.00
20156;BME280;10238;49.556;10.956;2023-05-11T11:44:48;97994.22;;;14.72;100.00
20156;BME280;10238;49.556;10.956;2023-05-11T11:47:37;97997.41;;;14.61;100.00
20156;BME280;10238;49.556;10.956;2023-05-11T11:50:27;98005.06;;;14.50;100.00
20156;BME280;10238;49.556;10.956;2023-05-11T11:56:55;97998.09;;;14.49;100.00
20156;BME280;10238;49.556;10.956;2023-05-11T11:59:45;97996.13;;;14.57;100.00
20156;BME280;10238;49.556;10.956;2023-05-11T12:02:40;97998.84;;;14.64;100.00
20156;BME280;10238;49.556;10.956;2023-05-11T12:05:29;97998.22;;;14.62;100.00
20156;BME280;10238;49.556;10.956;2023-05-11T12:08:18;98001.72;;;14.62;100.00
20156;BME280;10238;49.556;10.956;2023-05-11T12:11:07;97998.66;;;14.65;100.00
20156;BME280;10238;49.556;10.956;2023-05-11T12:13:56;97996.25;;;14.70;100.00
20156;BME280;10238;49.556;10.956;2023-05-11T12:17:00;97999.94;;;14.69;100.00
20156;BME280;10238;49.556;10.956;2023-05-11T12:19:48;97997.03;;;14.64;100.00
20156;BME280;10238;49.556;10.956;2023-05-11T12:22:36;98000.25;;;14.60;100.00
20156;BME280;10238;49.556;10.956;2023-05-11T12:25:24;97999.88;;;14.63;100.00
20156;BME280;10238;49.556;10.956;2023-05-11T12:28:12;97999.69;;;14.64;100.00
20156;BME280;10238;49.556;10.956;2023-05-11T12:31:01;98005.69;;;14.66;100.00
20156;BME280;10238;49.556;10.956;2023-05-11T12:33:50;97999.69;;;14.64;100.00
20156;BME280;10238;49.556;10.956;2023-05-11T12:36:38;98000.53;;;14.65;100.00
20156;BME280;10238;49.556;10.956;2023-05-11T12:39:27;98004.34;;;14.56;100.00
20156;BME280;10238;49.556;10.956;2023-05-11T12:42:18;97998.22;;;14.62;100.00
20156;BME280;10238;49.556;10.956;2023-05-11T12:45:07;98004.38;;;14.62;100.00
20156;BME280;10238;49.556;10.956;2023-05-11T12:47:57;98005.59;;;14.60;100.00
20156;BME280;10238;49.556;10.956;2023-05-11T12:50:45;98000.63;;;14.57;100.00
20156;BME280;10238;49.556;10.956;2023-05-11T12:53:35;97998.97;;;14.56;100.00
20156;BME280;10238;49.556;10.956;2023-05-11T12:56:23;97999.53;;;14.51;100.00
20156;BME280;10238;49.556;10.956;2023-05-11T12:59:26;98000.56;;;14.50;100.00
20156;BME280;10238;49.556;10.956;2023-05-11T13:02:16;97993.53;;;14.49;100.00
20156;BME280;10238;49.556;10.956;2023-05-11T13:05:16;97992.91;;;14.47;100.00
20156;BME280;10238;49.556;10.956;2023-05-11T13:08:05;97998.47;;;14.46;100.00
20156;BME280;10238;49.556;10.956;2023-05-11T13:10:54;97987.28;;;14.42;100.00
20156;BME280;10238;49.556;10.956;2023-05-11T13:13:42;97987.28;;;14.42;100.00
20156;BME280;10238;49.556;10.956;2023-05-11T13:16:31;97986.25;;;14.43;100.00
20156;BME280;10238;49.556;10.956;2023-05-11T13:19:27;97984.63;;;14.42;100.00
20156;BME280;10238;49.556;10.956;2023-05-11T13:22:19;97979.09;;;14.44;100.00
20156;BME280;10238;49.556;10.956;2023-05-11T13:25:07;97982.22;;;14.47;100.00
20156;BME280;10238;49.556;10.956;2023-05-11T13:27:55;97981.56;;;14.45;100.00
20156;BME280;10238;49.556;10.956;2023-05-11T13:30:44;97978.72;;;14.47;100.00
20156;BME280;10238;49.556;10.956;2023-05-11T13:33:32;97976.28;;;14.52;100.00
20156;BME280;10238;49.556;10.956;2023-05-11T13:36:20;97984.59;;;14.57;100.00
20156;BME280;10238;49.556;10.956;2023-05-11T13:39:09;97978.38;;;14.56;100.00
20156;BME280;10238;49.556;10.956;2023-05-11T13:41:57;97980.06;;;14.57;100.00
20156;BME280;10238;49.556;10.956;2023-05-11T13:44:45;97976.38;;;14.58;100.00
20156;BME280;10238;49.556;10.956;2023-05-11T13:47:33;97986.59;;;14.55;100.00
20156;BME280;10238;49.556;10.956;2023-05-11T13:50:23;97989.47;;;14.53;100.00
20156;BME280;10238;49.556;10.956;2023-05-11T13:53:11;97984.53;;;14.50;100.00
20156;BME280;10238;49.556;10.956;2023-05-11T13:56:01;97994.56;;;14.48;100.00
20156;BME280;10238;49.556;10.956;2023-05-11T13:58:50;97991.00;;;14.41;100.00
20156;BME280;10238;49.556;10.956;2023-05-11T14:01:37;97989.69;;;14.37;100.00
20156;BME280;10238;49.556;10.956;2023-05-11T14:04:25;97990.69;;;14.22;100.00
20156;BME280;10238;49.556;10.956;2023-05-11T14:07:13;97985.03;;;14.25;100.00
20156;BME280;10238;49.556;10.956;2023-05-11T14:10:01;97981.50;;;14.24;100.00
20156;BME280;10238;49.556;10.956;2023-05-11T14:12:51;97977.19;;;14.23;100.00
20156;BME280;10238;49.556;10.956;2023-05-11T14:15:39;97970.53;;;14.19;100.00
20156;BME280;10238;49.556;10.956;2023-05-11T14:18:27;97963.91;;;14.15;100.00
20156;BME280;10238;49.556;10.956;2023-05-11T14:21:15;97966.94;;;14.12;100.00
20156;BME280;10238;49.556;10.956;2023-05-11T14:24:03;97972.28;;;14.12;100.00
20156;BME280;10238;49.556;10.956;2023-05-11T14:26:58;97968.78;;;14.12;100.00
20156;BME280;10238;49.556;10.956;2023-05-11T14:29:47;97969.63;;;14.12;100.00
20156;BME280;10238;49.556;10.956;2023-05-11T14:32:36;97965.94;;;14.13;100.00
20156;BME280;10238;49.556;10.956;2023-05-11T14:35:24;97973.56;;;14.16;100.00
20156;BME280;10238;49.556;10.956;2023-05-11T14:38:12;97972.19;;;14.20;100.00
20156;BME280;10238;49.556;10.956;2023-05-11T14:41:00;97964.47;;;14.25;100.00
20156;BME280;10238;49.556;10.956;2023-05-11T14:43:49;97967.41;;;14.30;100.00
20156;BME280;10238;49.556;10.956;2023-05-11T14:46:38;97972.00;;;14.36;100.00
20156;BME280;10238;49.556;10.956;2023-05-11T14:49:26;97970.03;;;14.45;100.00